sensor_id;sensor_type;location;lat;lon;timestamp;P1;durP1;ratioP1;P2;durP2;ratioP2
2386;SDS011;49473;50.772;8.768;2023-04-25T00:01:02;8.87;;;5.80;;
2386;SDS011;49473;50.772;8.768;2023-04-25T00:03:29;7.20;;;5.40;;
2386;SDS011;49473;50.772;8.768;2023-04-25T00:05:58;7.97;;;5.63;;
2386;SDS011;49473;50.772;8.768;2023-04-25T00:08:27;9.30;;;5.77;;
2386;SDS011;49473;50.772;8.768;2023-04-25T00:10:54;8.70;;;5.73;;
2386;SDS011;49473;50.772;8.768;2023-04-25T00:13:22;9.37;;;5.90;;
2386;SDS011;49473;50.772;8.768;2023-04-25T00:15:50;7.53;;;5.60;;
2386;SDS011;49473;50.772;8.768;2023-04-25T00:18:18;7.30;;;6.23;;
2386;SDS011;49473;50.772;8.768;2023-04-25T00:20:45;7.00;;;5.90;;
2386;SDS011;49473;50.772;8.768;2023-04-25T00:23:13;8.67;;;5.77;;
2386;SDS011;49473;50.772;8.768;2023-04-25T00:25:42;7.80;;;5.67;;
2386;SDS011;49473;50.772;8.768;2023-04-25T00:28:09;8.30;;;6.30;;
2386;SDS011;49473;50.772;8.768;2023-04-25T00:30:36;9.27;;;6.37;;
2386;SDS011;49473;50.772;8.768;2023-04-25T00:33:03;8.77;;;6.53;;
2386;SDS011;49473;50.772;8.768;2023-04-25T00:35:30;10.50;;;6.00;;
2386;SDS011;49473;50.772;8.768;2023-04-25T00:37:57;7.83;;;5.93;;
2386;SDS011;49473;50.772;8.768;2023-04-25T00:40:25;7.63;;;6.57;;
2386;SDS011;49473;50.772;8.768;2023-04-25T00:42:52;7.27;;;6.20;;
2386;SDS011;49473;50.772;8.768;2023-04-25T00:45:19;8.63;;;6.57;;
2386;SDS011;49473;50.772;8.768;2023-04-25T00:47:46;9.13;;;5.50;;
2386;SDS011;49473;50.772;8.768;2023-04-25T00:50:13;8.53;;;5.57;;
2386;SDS011;49473;50.772;8.768;2023-04-25T00:52:41;8.40;;;6.23;;
2386;SDS011;49473;50.772;8.768;2023-04-25T00:55:10;8.30;;;6.17;;
2386;SDS011;49473;50.772;8.768;2023-04-25T00:57:39;8.70;;;6.70;;
2386;SDS011;49473;50.772;8.768;2023-04-25T01:00:07;12.70;;;6.17;;
2386;SDS011;49473;50.772;8.768;2023-04-25T01:02:35;12.40;;;6.60;;
2386;SDS011;49473;50.772;8.768;2023-04-25T01:05:03;9.53;;;6.67;;
2386;SDS011;49473;50.772;8.768;2023-04-25T01:07:30;10.40;;;6.20;;
2386;SDS011;49473;50.772;8.768;2023-04-25T01:09:56;11.13;;;6.93;;
2386;SDS011;49473;50.772;8.768;2023-04-25T01:12:24;9.90;;;7.10;;
2386;SDS011;49473;50.772;8.768;2023-04-25T01:14:52;7.50;;;6.67;;
2386;SDS011;49473;50.772;8.768;2023-04-25T01:17:19;10.20;;;7.00;;
2386;SDS011;49473;50.772;8.768;2023-04-25T01:19:46;7.80;;;6.30;;
2386;SDS011;49473;50.772;8.768;2023-04-25T01:22:15;9.37;;;6.80;;
2386;SDS011;49473;50.772;8.768;2023-04-25T01:24:42;9.87;;;7.07;;
2386;SDS011;49473;50.772;8.768;2023-04-25T01:27:09;9.60;;;6.40;;
2386;SDS011;49473;50.772;8.768;2023-04-25T01:29:37;9.50;;;6.50;;
2386;SDS011;49473;50.772;8.768;2023-04-25T01:32:04;11.60;;;7.10;;
2386;SDS011;49473;50.772;8.768;2023-04-25T01:34:32;8.90;;;6.10;;
2386;SDS011;49473;50.772;8.768;2023-04-25T01:36:59;11.63;;;6.60;;
2386;SDS011;49473;50.772;8.768;2023-04-25T01:39:28;11.77;;;6.57;;
2386;SDS011;49473;50.772;8.768;2023-04-25T01:41:54;10.57;;;7.67;;
2386;SDS011;49473;50.772;8.768;2023-04-25T01:44:22;9.77;;;7.10;;
2386;SDS011;49473;50.772;8.768;2023-04-25T01:46:48;9.70;;;6.80;;
2386;SDS011;49473;50.772;8.768;2023-04-25T01:49:15;9.23;;;6.53;;
2386;SDS011;49473;50.772;8.768;2023-04-25T01:51:42;10.70;;;7.43;;
2386;SDS011;49473;50.772;8.768;2023-04-25T01:54:09;10.20;;;7.37;;
2386;SDS011;49473;50.772;8.768;2023-04-25T01:56:38;10.60;;;6.63;;
2386;SDS011;49473;50.772;8.768;2023-04-25T01:59:05;11.27;;;7.40;;
2386;SDS011;49473;50.772;8.768;2023-04-25T02:01:32;10.30;;;7.20;;
2386;SDS011;49473;50.772;8.768;2023-04-25T02:03:59;9.37;;;6.40;;
2386;SDS011;49473;50.772;8.768;2023-04-25T02:06:26;10.70;;;6.70;;
2386;SDS011;49473;50.772;8.768;2023-04-25T02:08:52;9.13;;;6.50;;
2386;SDS011;49473;50.772;8.768;2023-04-25T02:11:19;8.80;;;6.43;;
2386;SDS011;49473;50.772;8.768;2023-04-25T02:13:47;9.30;;;6.97;;
2386;SDS011;49473;50.772;8.768;2023-04-25T02:16:14;10.00;;;7.00;;
2386;SDS011;49473;50.772;8.768;2023-04-25T02:18:40;12.00;;;7.13;;
2386;SDS011;49473;50.772;8.768;2023-04-25T02:21:07;10.60;;;7.37;;
2386;SDS011;49473;50.772;8.768;2023-04-25T02:23:34;10.00;;;7.40;;
2386;SDS011;49473;50.772;8.768;2023-04-25T02:26:01;10.83;;;7.30;;
2386;SDS011;49473;50.772;8.768;2023-04-25T02:28:28;11.83;;;7.40;;
2386;SDS011;49473;50.772;8.768;2023-04-25T02:30:56;12.00;;;7.80;;
2386;SDS011;49473;50.772;8.768;2023-04-25T02:33:23;10.90;;;7.40;;
2386;SDS011;49473;50.772;8.768;2023-04-25T02:35:50;15.93;;;6.87;;
2386;SDS011;49473;50.772;8.768;2023-04-25T02:38:16;10.50;;;7.90;;
2386;SDS011;49473;50.772;8.768;2023-04-25T02:40:43;12.83;;;8.13;;
2386;SDS011;49473;50.772;8.768;2023-04-25T02:43:10;12.90;;;7.70;;
2386;SDS011;49473;50.772;8.768;2023-04-25T02:45:37;14.63;;;7.47;;
2386;SDS011;49473;50.772;8.768;2023-04-25T02:48:05;14.73;;;8.10;;
2386;SDS011;49473;50.772;8.768;2023-04-25T02:50:32;12.00;;;7.30;;
2386;SDS011;49473;50.772;8.768;2023-04-25T02:52:59;10.70;;;7.17;;
2386;SDS011;49473;50.772;8.768;2023-04-25T02:55:25;12.17;;;7.63;;
2386;SDS011;49473;50.772;8.768;2023-04-25T02:57:52;13.70;;;8.53;;
2386;SDS011;49473;50.772;8.768;2023-04-25T03:00:20;12.30;;;8.03;;
2386;SDS011;49473;50.772;8.768;2023-04-25T03:02:47;11.60;;;7.90;;
2386;SDS011;49473;50.772;8.768;2023-04-25T03:05:15;10.77;;;7.40;;
2386;SDS011;49473;50.772;8.768;2023-04-25T03:07:42;12.90;;;8.50;;
2386;SDS011;49473;50.772;8.768;2023-04-25T03:10:10;12.50;;;7.80;;
2386;SDS011;49473;50.772;8.768;2023-04-25T03:12:37;9.47;;;7.43;;
2386;SDS011;49473;50.772;8.768;2023-04-25T03:15:05;11.90;;;7.30;;
2386;SDS011;49473;50.772;8.768;2023-04-25T03:17:32;13.37;;;7.53;;
2386;SDS011;49473;50.772;8.768;2023-04-25T03:20:00;9.57;;;7.43;;
2386;SDS011;49473;50.772;8.768;2023-04-25T03:22:30;11.50;;;7.67;;
2386;SDS011;49473;50.772;8.768;2023-04-25T03:24:57;11.80;;;7.20;;
2386;SDS011;49473;50.772;8.768;2023-04-25T03:27:23;12.27;;;7.03;;
2386;SDS011;49473;50.772;8.768;2023-04-25T03:29:50;12.30;;;7.43;;
2386;SDS011;49473;50.772;8.768;2023-04-25T03:32:17;10.47;;;7.77;;
2386;SDS011;49473;50.772;8.768;2023-04-25T03:34:44;13.23;;;7.40;;
2386;SDS011;49473;50.772;8.768;2023-04-25T03:37:10;11.57;;;7.37;;
2386;SDS011;49473;50.772;8.768;2023-04-25T03:39:38;11.87;;;8.17;;
2386;SDS011;49473;50.772;8.768;2023-04-25T03:42:05;11.00;;;7.83;;
2386;SDS011;49473;50.772;8.768;2023-04-25T03:44:32;12.30;;;7.47;;
2386;SDS011;49473;50.772;8.768;2023-04-25T03:46:59;9.90;;;7.83;;
2386;SDS011;49473;50.772;8.768;2023-04-25T03:49:25;10.67;;;7.50;;
2386;SDS011;49473;50.772;8.768;2023-04-25T03:51:52;10.50;;;7.33;;
2386;SDS011;49473;50.772;8.768;2023-04-25T03:54:19;9.70;;;7.20;;
2386;SDS011;49473;50.772;8.768;2023-04-25T03:56:47;17.27;;;7.50;;
2386;SDS011;49473;50.772;8.768;2023-04-25T03:59:14;12.70;;;7.53;;
2386;SDS011;49473;50.772;8.768;2023-04-25T04:01:40;13.03;;;7.90;;
2386;SDS011;49473;50.772;8.768;2023-04-25T04:04:07;11.30;;;6.70;;
2386;SDS011;49473;50.772;8.768;2023-04-25T04:06:34;10.80;;;7.60;;
2386;SDS011;49473;50.772;8.768;2023-04-25T04:09:01;10.70;;;8.07;;
2386;SDS011;49473;50.772;8.768;2023-04-25T04:11:28;9.73;;;7.13;;
2386;SDS011;49473;50.772;8.768;2023-04-25T04:13:57;10.80;;;7.87;;
2386;SDS011;49473;50.772;8.768;2023-04-25T04:16:24;10.50;;;7.10;;
2386;SDS011;49473;50.772;8.768;2023-04-25T04:18:51;11.10;;;8.07;;
2386;SDS011;49473;50.772;8.768;2023-04-25T04:21:18;11.90;;;8.30;;
2386;SDS011;49473;50.772;8.768;2023-04-25T04:23:44;13.27;;;8.83;;
2386;SDS011;49473;50.772;8.768;2023-04-25T04:26:11;15.30;;;9.73;;
2386;SDS011;49473;50.772;8.768;2023-04-25T04:28:38;12.70;;;9.20;;
2386;SDS011;49473;50.772;8.768;2023-04-25T04:31:06;14.63;;;9.30;;
2386;SDS011;49473;50.772;8.768;2023-04-25T04:33:34;14.13;;;8.87;;
2386;SDS011;49473;50.772;8.768;2023-04-25T04:36:01;13.00;;;8.87;;
2386;SDS011;49473;50.772;8.768;2023-04-25T04:38:29;14.10;;;8.50;;
2386;SDS011;49473;50.772;8.768;2023-04-25T04:40:57;14.90;;;8.70;;
2386;SDS011;49473;50.772;8.768;2023-04-25T04:43:23;11.00;;;9.30;;
2386;SDS011;49473;50.772;8.768;2023-04-25T04:45:50;10.70;;;7.83;;
2386;SDS011;49473;50.772;8.768;2023-04-25T04:48:18;10.33;;;8.40;;
2386;SDS011;49473;50.772;8.768;2023-04-25T04:50:46;12.27;;;8.90;;
2386;SDS011;49473;50.772;8.768;2023-04-25T04:53:13;10.93;;;7.80;;
2386;SDS011;49473;50.772;8.768;2023-04-25T04:55:40;14.77;;;8.70;;
2386;SDS011;49473;50.772;8.768;2023-04-25T04:58:08;10.10;;;8.03;;
2386;SDS011;49473;50.772;8.768;2023-04-25T05:00:34;10.63;;;8.13;;
2386;SDS011;49473;50.772;8.768;2023-04-25T05:03:01;10.90;;;7.90;;
2386;SDS011;49473;50.772;8.768;2023-04-25T05:05:30;12.40;;;8.00;;
2386;SDS011;49473;50.772;8.768;2023-04-25T05:07:56;11.83;;;8.10;;
2386;SDS011;49473;50.772;8.768;2023-04-25T05:10:23;11.60;;;8.17;;
2386;SDS011;49473;50.772;8.768;2023-04-25T05:12:50;9.00;;;7.50;;
2386;SDS011;49473;50.772;8.768;2023-04-25T05:15:17;11.93;;;8.57;;
2386;SDS011;49473;50.772;8.768;2023-04-25T05:17:44;12.77;;;7.60;;
2386;SDS011;49473;50.772;8.768;2023-04-25T05:20:11;11.67;;;8.93;;
2386;SDS011;49473;50.772;8.768;2023-04-25T05:22:40;16.10;;;10.23;;
2386;SDS011;49473;50.772;8.768;2023-04-25T05:25:08;19.00;;;13.23;;
2386;SDS011;49473;50.772;8.768;2023-04-25T05:27:35;10.60;;;7.93;;
2386;SDS011;49473;50.772;8.768;2023-04-25T05:30:02;14.73;;;9.50;;
2386;SDS011;49473;50.772;8.768;2023-04-25T05:32:29;10.30;;;8.63;;
2386;SDS011;49473;50.772;8.768;2023-04-25T05:34:56;10.07;;;7.97;;
2386;SDS011;49473;50.772;8.768;2023-04-25T05:37:23;11.87;;;9.00;;
2386;SDS011;49473;50.772;8.768;2023-04-25T05:39:51;12.23;;;8.33;;
2386;SDS011;49473;50.772;8.768;2023-04-25T05:42:19;14.83;;;8.40;;
2386;SDS011;49473;50.772;8.768;2023-04-25T05:44:46;9.07;;;7.20;;
2386;SDS011;49473;50.772;8.768;2023-04-25T05:47:13;16.37;;;7.80;;
2386;SDS011;49473;50.772;8.768;2023-04-25T05:49:40;7.53;;;6.57;;
2386;SDS011;49473;50.772;8.768;2023-04-25T05:52:06;12.23;;;7.67;;
2386;SDS011;49473;50.772;8.768;2023-04-25T05:54:33;10.77;;;7.77;;
2386;SDS011;49473;50.772;8.768;2023-04-25T05:57:01;9.73;;;7.63;;
2386;SDS011;49473;50.772;8.768;2023-04-25T05:59:28;12.00;;;8.40;;
2386;SDS011;49473;50.772;8.768;2023-04-25T06:01:55;11.70;;;8.20;;
2386;SDS011;49473;50.772;8.768;2023-04-25T06:04:22;10.23;;;7.60;;
2386;SDS011;49473;50.772;8.768;2023-04-25T06:06:48;11.20;;;7.80;;
2386;SDS011;49473;50.772;8.768;2023-04-25T06:09:15;12.53;;;8.50;;
2386;SDS011;49473;50.772;8.768;2023-04-25T06:11:42;10.47;;;7.47;;
2386;SDS011;49473;50.772;8.768;2023-04-25T06:14:10;10.50;;;8.00;;
2386;SDS011;49473;50.772;8.768;2023-04-25T06:16:36;10.17;;;7.63;;
2386;SDS011;49473;50.772;8.768;2023-04-25T06:19:03;9.60;;;7.00;;
2386;SDS011;49473;50.772;8.768;2023-04-25T06:21:30;8.00;;;6.60;;
2386;SDS011;49473;50.772;8.768;2023-04-25T06:23:57;8.40;;;4.20;;
2386;SDS011;49473;50.772;8.768;2023-04-25T06:26:24;6.40;;;4.40;;
2386;SDS011;49473;50.772;8.768;2023-04-25T06:28:50;6.17;;;5.67;;
2386;SDS011;49473;50.772;8.768;2023-04-25T06:31:18;5.90;;;4.80;;
2386;SDS011;49473;50.772;8.768;2023-04-25T06:33:45;7.37;;;4.83;;
2386;SDS011;49473;50.772;8.768;2023-04-25T06:36:13;5.50;;;5.00;;
2386;SDS011;49473;50.772;8.768;2023-04-25T06:38:40;5.23;;;4.73;;
2386;SDS011;49473;50.772;8.768;2023-04-25T06:41:06;4.57;;;4.23;;
2386;SDS011;49473;50.772;8.768;2023-04-25T06:43:33;4.83;;;4.33;;
2386;SDS011;49473;50.772;8.768;2023-04-25T06:46:00;3.67;;;3.37;;
2386;SDS011;49473;50.772;8.768;2023-04-25T06:48:28;4.83;;;4.27;;
2386;SDS011;49473;50.772;8.768;2023-04-25T06:50:55;7.73;;;5.73;;
2386;SDS011;49473;50.772;8.768;2023-04-25T06:53:22;6.57;;;5.70;;
2386;SDS011;49473;50.772;8.768;2023-04-25T06:55:49;6.87;;;5.80;;
2386;SDS011;49473;50.772;8.768;2023-04-25T06:58:16;6.67;;;5.80;;
2386;SDS011;49473;50.772;8.768;2023-04-25T07:00:43;7.47;;;6.60;;
2386;SDS011;49473;50.772;8.768;2023-04-25T07:03:10;7.40;;;6.10;;
2386;SDS011;49473;50.772;8.768;2023-04-25T07:05:39;6.90;;;5.80;;
2386;SDS011;49473;50.772;8.768;2023-04-25T07:08:06;10.50;;;6.47;;
2386;SDS011;49473;50.772;8.768;2023-04-25T07:10:32;6.73;;;5.77;;
2386;SDS011;49473;50.772;8.768;2023-04-25T07:12:59;6.50;;;5.60;;
2386;SDS011;49473;50.772;8.768;2023-04-25T07:15:26;7.83;;;5.43;;
2386;SDS011;49473;50.772;8.768;2023-04-25T07:17:53;7.73;;;5.70;;
2386;SDS011;49473;50.772;8.768;2023-04-25T07:20:20;7.07;;;5.50;;
2386;SDS011;49473;50.772;8.768;2023-04-25T07:22:48;7.00;;;5.30;;
2386;SDS011;49473;50.772;8.768;2023-04-25T07:25:15;7.57;;;4.63;;
2386;SDS011;49473;50.772;8.768;2023-04-25T07:27:42;7.80;;;5.27;;
2386;SDS011;49473;50.772;8.768;2023-04-25T07:30:09;2.60;;;2.40;;
2386;SDS011;49473;50.772;8.768;2023-04-25T07:32:37;2.70;;;2.50;;
2386;SDS011;49473;50.772;8.768;2023-04-25T07:35:04;2.87;;;2.27;;
2386;SDS011;49473;50.772;8.768;2023-04-25T07:37:32;1.70;;;1.60;;
2386;SDS011;49473;50.772;8.768;2023-04-25T07:40:00;2.50;;;2.30;;
2386;SDS011;49473;50.772;8.768;2023-04-25T07:42:28;3.40;;;3.20;;
2386;SDS011;49473;50.772;8.768;2023-04-25T07:44:55;5.47;;;4.53;;
2386;SDS011;49473;50.772;8.768;2023-04-25T07:47:22;5.73;;;4.30;;
2386;SDS011;49473;50.772;8.768;2023-04-25T07:49:49;5.17;;;4.60;;
2386;SDS011;49473;50.772;8.768;2023-04-25T07:52:16;6.30;;;4.60;;
2386;SDS011;49473;50.772;8.768;2023-04-25T07:54:43;12.30;;;5.30;;
2386;SDS011;49473;50.772;8.768;2023-04-25T07:57:11;7.70;;;5.20;;
2386;SDS011;49473;50.772;8.768;2023-04-25T07:59:39;9.90;;;4.90;;
2386;SDS011;49473;50.772;8.768;2023-04-25T08:02:05;6.27;;;4.60;;
2386;SDS011;49473;50.772;8.768;2023-04-25T08:04:32;7.20;;;5.37;;
2386;SDS011;49473;50.772;8.768;2023-04-25T08:06:59;6.20;;;5.33;;
2386;SDS011;49473;50.772;8.768;2023-04-25T08:09:26;7.30;;;4.80;;
2386;SDS011;49473;50.772;8.768;2023-04-25T08:11:54;7.53;;;5.07;;
2386;SDS011;49473;50.772;8.768;2023-04-25T08:14:22;7.87;;;5.43;;
2386;SDS011;49473;50.772;8.768;2023-04-25T08:16:49;6.47;;;5.00;;
2386;SDS011;49473;50.772;8.768;2023-04-25T08:19:16;8.60;;;5.20;;
2386;SDS011;49473;50.772;8.768;2023-04-25T08:21:42;9.50;;;5.10;;
2386;SDS011;49473;50.772;8.768;2023-04-25T08:24:09;8.23;;;5.27;;
2386;SDS011;49473;50.772;8.768;2023-04-25T08:26:36;8.57;;;5.93;;
2386;SDS011;49473;50.772;8.768;2023-04-25T08:29:04;10.50;;;6.20;;
2386;SDS011;49473;50.772;8.768;2023-04-25T08:31:32;7.90;;;6.53;;
2386;SDS011;49473;50.772;8.768;2023-04-25T08:33:59;9.67;;;6.47;;
2386;SDS011;49473;50.772;8.768;2023-04-25T08:36:26;8.47;;;5.73;;
2386;SDS011;49473;50.772;8.768;2023-04-25T08:38:53;8.13;;;5.10;;
2386;SDS011;49473;50.772;8.768;2023-04-25T08:41:21;8.13;;;5.73;;
2386;SDS011;49473;50.772;8.768;2023-04-25T08:43:48;8.50;;;5.50;;
2386;SDS011;49473;50.772;8.768;2023-04-25T08:46:17;11.13;;;5.90;;
2386;SDS011;49473;50.772;8.768;2023-04-25T08:48:46;10.33;;;4.90;;
2386;SDS011;49473;50.772;8.768;2023-04-25T08:51:15;8.73;;;5.50;;
2386;SDS011;49473;50.772;8.768;2023-04-25T08:53:47;7.53;;;5.37;;
2386;SDS011;49473;50.772;8.768;2023-04-25T08:56:16;6.30;;;4.87;;
2386;SDS011;49473;50.772;8.768;2023-04-25T08:58:45;7.90;;;5.13;;
2386;SDS011;49473;50.772;8.768;2023-04-25T09:01:14;8.97;;;4.87;;
2386;SDS011;49473;50.772;8.768;2023-04-25T09:03:40;9.20;;;5.93;;
2386;SDS011;49473;50.772;8.768;2023-04-25T09:06:09;6.90;;;5.10;;
2386;SDS011;49473;50.772;8.768;2023-04-25T09:08:37;10.00;;;5.57;;
2386;SDS011;49473;50.772;8.768;2023-04-25T09:11:05;8.67;;;5.60;;
2386;SDS011;49473;50.772;8.768;2023-04-25T09:13:33;9.10;;;5.80;;
2386;SDS011;49473;50.772;8.768;2023-04-25T09:16:00;14.40;;;5.77;;
2386;SDS011;49473;50.772;8.768;2023-04-25T09:18:27;9.47;;;5.33;;
2386;SDS011;49473;50.772;8.768;2023-04-25T09:20:55;5.77;;;3.00;;
2386;SDS011;49473;50.772;8.768;2023-04-25T09:23:24;5.40;;;3.80;;
2386;SDS011;49473;50.772;8.768;2023-04-25T09:25:52;7.27;;;5.00;;
2386;SDS011;49473;50.772;8.768;2023-04-25T09:28:22;4.77;;;2.97;;
2386;SDS011;49473;50.772;8.768;2023-04-25T09:30:54;6.07;;;2.57;;
2386;SDS011;49473;50.772;8.768;2023-04-25T09:33:26;3.60;;;2.80;;
2386;SDS011;49473;50.772;8.768;2023-04-25T09:35:56;3.10;;;2.47;;
2386;SDS011;49473;50.772;8.768;2023-04-25T09:38:30;5.67;;;3.47;;
2386;SDS011;49473;50.772;8.768;2023-04-25T09:40:57;4.77;;;2.47;;
2386;SDS011;49473;50.772;8.768;2023-04-25T09:43:25;4.80;;;2.03;;
2386;SDS011;49473;50.772;8.768;2023-04-25T09:45:53;4.53;;;2.03;;
2386;SDS011;49473;50.772;8.768;2023-04-25T09:48:22;5.07;;;2.37;;
2386;SDS011;49473;50.772;8.768;2023-04-25T09:51:03;2.40;;;2.10;;
2386;SDS011;49473;50.772;8.768;2023-04-25T09:53:32;4.50;;;2.50;;
2386;SDS011;49473;50.772;8.768;2023-04-25T09:55:59;6.10;;;2.57;;
2386;SDS011;49473;50.772;8.768;2023-04-25T09:58:30;3.67;;;2.83;;
2386;SDS011;49473;50.772;8.768;2023-04-25T10:00:59;6.90;;;4.70;;
2386;SDS011;49473;50.772;8.768;2023-04-25T10:03:27;9.40;;;5.07;;
2386;SDS011;49473;50.772;8.768;2023-04-25T10:05:56;6.60;;;4.70;;
2386;SDS011;49473;50.772;8.768;2023-04-25T10:08:26;9.20;;;5.27;;
2386;SDS011;49473;50.772;8.768;2023-04-25T10:11:00;7.10;;;4.87;;
2386;SDS011;49473;50.772;8.768;2023-04-25T10:13:28;10.63;;;5.17;;
2386;SDS011;49473;50.772;8.768;2023-04-25T10:15:56;8.13;;;5.40;;
2386;SDS011;49473;50.772;8.768;2023-04-25T10:18:24;10.53;;;4.90;;
2386;SDS011;49473;50.772;8.768;2023-04-25T10:20:51;4.03;;;2.27;;
2386;SDS011;49473;50.772;8.768;2023-04-25T10:23:20;3.00;;;2.53;;
2386;SDS011;49473;50.772;8.768;2023-04-25T10:25:47;3.00;;;2.17;;
2386;SDS011;49473;50.772;8.768;2023-04-25T10:28:16;7.13;;;2.30;;
2386;SDS011;49473;50.772;8.768;2023-04-25T10:30:56;5.23;;;2.67;;
2386;SDS011;49473;50.772;8.768;2023-04-25T10:33:29;7.17;;;4.90;;
2386;SDS011;49473;50.772;8.768;2023-04-25T10:36:07;10.20;;;5.07;;
2386;SDS011;49473;50.772;8.768;2023-04-25T10:38:35;8.53;;;5.27;;
2386;SDS011;49473;50.772;8.768;2023-04-25T10:41:03;9.97;;;4.90;;
2386;SDS011;49473;50.772;8.768;2023-04-25T10:43:35;6.47;;;4.90;;
2386;SDS011;49473;50.772;8.768;2023-04-25T10:46:12;9.23;;;5.00;;
2386;SDS011;49473;50.772;8.768;2023-04-25T10:48:49;7.40;;;5.23;;
2386;SDS011;49473;50.772;8.768;2023-04-25T10:51:18;6.40;;;4.40;;
2386;SDS011;49473;50.772;8.768;2023-04-25T10:53:46;6.63;;;4.37;;
2386;SDS011;49473;50.772;8.768;2023-04-25T10:56:22;8.23;;;5.17;;
2386;SDS011;49473;50.772;8.768;2023-04-25T10:58:53;9.43;;;5.43;;
2386;SDS011;49473;50.772;8.768;2023-04-25T11:01:35;7.40;;;4.60;;
2386;SDS011;49473;50.772;8.768;2023-04-25T11:04:03;3.57;;;2.10;;
2386;SDS011;49473;50.772;8.768;2023-04-25T11:06:32;2.60;;;2.10;;
2386;SDS011;49473;50.772;8.768;2023-04-25T11:09:09;4.80;;;2.40;;
2386;SDS011;49473;50.772;8.768;2023-04-25T11:11:38;5.40;;;2.50;;
2386;SDS011;49473;50.772;8.768;2023-04-25T11:14:06;4.90;;;2.83;;
2386;SDS011;49473;50.772;8.768;2023-04-25T11:16:33;7.17;;;2.70;;
2386;SDS011;49473;50.772;8.768;2023-04-25T11:19:01;2.80;;;2.20;;
2386;SDS011;49473;50.772;8.768;2023-04-25T11:21:28;3.70;;;1.90;;
2386;SDS011;49473;50.772;8.768;2023-04-25T11:23:56;4.13;;;1.83;;
2386;SDS011;49473;50.772;8.768;2023-04-25T11:26:24;5.80;;;2.27;;
2386;SDS011;49473;50.772;8.768;2023-04-25T11:28:50;1.97;;;1.73;;
2386;SDS011;49473;50.772;8.768;2023-04-25T11:31:21;3.10;;;1.80;;
2386;SDS011;49473;50.772;8.768;2023-04-25T11:33:48;3.37;;;3.07;;
2386;SDS011;49473;50.772;8.768;2023-04-25T11:36:14;6.23;;;3.10;;
2386;SDS011;49473;50.772;8.768;2023-04-25T11:38:41;4.10;;;3.50;;
2386;SDS011;49473;50.772;8.768;2023-04-25T11:41:08;2.50;;;2.30;;
2386;SDS011;49473;50.772;8.768;2023-04-25T11:43:35;3.40;;;2.80;;
2386;SDS011;49473;50.772;8.768;2023-04-25T11:46:05;6.10;;;3.33;;
2386;SDS011;49473;50.772;8.768;2023-04-25T11:48:37;3.00;;;2.70;;
2386;SDS011;49473;50.772;8.768;2023-04-25T11:51:05;6.30;;;5.00;;
2386;SDS011;49473;50.772;8.768;2023-04-25T11:53:31;7.70;;;4.90;;
2386;SDS011;49473;50.772;8.768;2023-04-25T11:55:58;6.10;;;4.60;;
2386;SDS011;49473;50.772;8.768;2023-04-25T11:58:26;5.30;;;4.50;;
2386;SDS011;49473;50.772;8.768;2023-04-25T12:00:53;4.73;;;4.33;;
2386;SDS011;49473;50.772;8.768;2023-04-25T12:03:23;6.87;;;5.20;;
2386;SDS011;49473;50.772;8.768;2023-04-25T12:05:53;6.47;;;4.30;;
2386;SDS011;49473;50.772;8.768;2023-04-25T12:08:30;6.00;;;4.43;;
2386;SDS011;49473;50.772;8.768;2023-04-25T12:10:57;5.17;;;4.20;;
2386;SDS011;49473;50.772;8.768;2023-04-25T12:13:24;5.77;;;4.57;;
2386;SDS011;49473;50.772;8.768;2023-04-25T12:15:54;6.80;;;4.30;;
2386;SDS011;49473;50.772;8.768;2023-04-25T12:18:22;5.57;;;4.27;;
2386;SDS011;49473;50.772;8.768;2023-04-25T12:20:53;9.00;;;4.30;;
2386;SDS011;49473;50.772;8.768;2023-04-25T12:23:25;5.43;;;4.40;;
2386;SDS011;49473;50.772;8.768;2023-04-25T12:25:52;4.40;;;4.00;;
2386;SDS011;49473;50.772;8.768;2023-04-25T12:28:20;7.70;;;4.40;;
2386;SDS011;49473;50.772;8.768;2023-04-25T12:30:52;5.93;;;4.57;;
2386;SDS011;49473;50.772;8.768;2023-04-25T12:33:20;8.03;;;4.77;;
2386;SDS011;49473;50.772;8.768;2023-04-25T12:35:47;7.47;;;4.40;;
2386;SDS011;49473;50.772;8.768;2023-04-25T12:38:21;5.97;;;4.37;;
2386;SDS011;49473;50.772;8.768;2023-04-25T12:40:49;5.30;;;4.83;;
2386;SDS011;49473;50.772;8.768;2023-04-25T12:43:15;5.00;;;4.50;;
2386;SDS011;49473;50.772;8.768;2023-04-25T12:45:42;4.90;;;4.23;;
2386;SDS011;49473;50.772;8.768;2023-04-25T12:48:09;6.47;;;4.30;;
2386;SDS011;49473;50.772;8.768;2023-04-25T12:50:36;5.37;;;4.07;;
2386;SDS011;49473;50.772;8.768;2023-04-25T12:53:03;6.00;;;4.10;;
2386;SDS011;49473;50.772;8.768;2023-04-25T12:55:31;3.57;;;1.93;;
2386;SDS011;49473;50.772;8.768;2023-04-25T12:57:58;7.00;;;2.50;;
2386;SDS011;49473;50.772;8.768;2023-04-25T13:00:25;4.93;;;2.83;;
2386;SDS011;49473;50.772;8.768;2023-04-25T13:02:52;4.00;;;2.63;;
2386;SDS011;49473;50.772;8.768;2023-04-25T13:05:19;4.37;;;2.40;;
2386;SDS011;49473;50.772;8.768;2023-04-25T13:07:46;6.00;;;4.20;;
2386;SDS011;49473;50.772;8.768;2023-04-25T13:10:12;8.77;;;5.37;;
2386;SDS011;49473;50.772;8.768;2023-04-25T13:12:42;6.77;;;3.93;;
2386;SDS011;49473;50.772;8.768;2023-04-25T13:15:09;6.77;;;4.47;;
2386;SDS011;49473;50.772;8.768;2023-04-25T13:17:36;7.13;;;4.00;;
2386;SDS011;49473;50.772;8.768;2023-04-25T13:20:04;3.93;;;1.70;;
2386;SDS011;49473;50.772;8.768;2023-04-25T13:22:34;3.23;;;1.60;;
2386;SDS011;49473;50.772;8.768;2023-04-25T13:25:02;5.37;;;1.27;;
2386;SDS011;49473;50.772;8.768;2023-04-25T13:27:30;3.20;;;1.60;;
2386;SDS011;49473;50.772;8.768;2023-04-25T13:30:00;2.23;;;1.53;;
2386;SDS011;49473;50.772;8.768;2023-04-25T13:32:29;3.97;;;1.93;;
2386;SDS011;49473;50.772;8.768;2023-04-25T13:34:56;3.63;;;1.43;;
2386;SDS011;49473;50.772;8.768;2023-04-25T13:37:23;2.50;;;2.10;;
2386;SDS011;49473;50.772;8.768;2023-04-25T13:39:50;3.37;;;2.17;;
2386;SDS011;49473;50.772;8.768;2023-04-25T13:42:17;4.37;;;2.80;;
2386;SDS011;49473;50.772;8.768;2023-04-25T13:44:44;4.50;;;3.03;;
2386;SDS011;49473;50.772;8.768;2023-04-25T13:47:12;3.23;;;3.03;;
2386;SDS011;49473;50.772;8.768;2023-04-25T13:49:38;4.13;;;3.30;;
2386;SDS011;49473;50.772;8.768;2023-04-25T13:52:05;3.73;;;3.43;;
2386;SDS011;49473;50.772;8.768;2023-04-25T13:54:33;3.63;;;3.33;;
2386;SDS011;49473;50.772;8.768;2023-04-25T13:56:59;3.53;;;2.83;;
2386;SDS011;49473;50.772;8.768;2023-04-25T13:59:27;6.20;;;3.73;;
2386;SDS011;49473;50.772;8.768;2023-04-25T14:01:54;3.23;;;3.00;;
2386;SDS011;49473;50.772;8.768;2023-04-25T14:04:22;2.80;;;1.83;;
2386;SDS011;49473;50.772;8.768;2023-04-25T14:06:48;3.73;;;3.07;;
2386;SDS011;49473;50.772;8.768;2023-04-25T14:09:16;3.30;;;2.77;;
2386;SDS011;49473;50.772;8.768;2023-04-25T14:11:42;4.50;;;3.10;;
2386;SDS011;49473;50.772;8.768;2023-04-25T14:14:09;3.27;;;2.93;;
2386;SDS011;49473;50.772;8.768;2023-04-25T14:16:37;4.93;;;2.90;;
2386;SDS011;49473;50.772;8.768;2023-04-25T14:19:04;3.20;;;2.40;;
2386;SDS011;49473;50.772;8.768;2023-04-25T14:21:32;2.57;;;1.37;;
2386;SDS011;49473;50.772;8.768;2023-04-25T14:23:59;1.63;;;1.33;;
2386;SDS011;49473;50.772;8.768;2023-04-25T14:26:25;2.10;;;1.40;;
2386;SDS011;49473;50.772;8.768;2023-04-25T14:28:52;1.83;;;1.70;;
2386;SDS011;49473;50.772;8.768;2023-04-25T14:31:19;3.07;;;2.07;;
2386;SDS011;49473;50.772;8.768;2023-04-25T14:33:45;4.07;;;3.00;;
2386;SDS011;49473;50.772;8.768;2023-04-25T14:36:12;8.80;;;4.37;;
2386;SDS011;49473;50.772;8.768;2023-04-25T14:38:40;5.13;;;4.67;;
2386;SDS011;49473;50.772;8.768;2023-04-25T14:41:07;5.03;;;3.90;;
2386;SDS011;49473;50.772;8.768;2023-04-25T14:43:36;5.50;;;4.20;;
2386;SDS011;49473;50.772;8.768;2023-04-25T14:46:04;6.30;;;4.40;;
2386;SDS011;49473;50.772;8.768;2023-04-25T14:48:31;5.40;;;4.10;;
2386;SDS011;49473;50.772;8.768;2023-04-25T14:50:58;4.90;;;4.33;;
2386;SDS011;49473;50.772;8.768;2023-04-25T14:53:26;10.80;;;4.10;;
2386;SDS011;49473;50.772;8.768;2023-04-25T14:55:55;5.13;;;3.40;;
2386;SDS011;49473;50.772;8.768;2023-04-25T14:58:22;6.00;;;4.10;;
2386;SDS011;49473;50.772;8.768;2023-04-25T15:00:49;6.27;;;4.80;;